Time;durP1;ratioP1;P1;durP2;ratioP2;P2;SDS_P1;SDS_P2;PMS_P1;PMS_P2;Temp;Humidity;BMP_temperature;BMP_pressure;BME280_temperature;BME280_humidity;BME280_pressure;Samples;Min_cycle;Max_cycle;Signal;HPM_P1;HPM_P2
2022/05/29 00:04:54;;;;;;;5.53;1.60;;;13.40;99.90;;;;;;10170745;29;20270;-87
2022/05/29 00:09:56;;;;;;;6.20;2.20;;;14.30;99.90;;;;;;10171922;29;20306;-87
2022/05/29 00:14:59;;;;;;;3.43;1.80;;;15.70;99.90;;;;;;10171415;29;20289;-87
2022/05/29 00:20:02;;;;;;;3.93;1.90;;;15.30;99.90;;;;;;10173539;29;20205;-87
2022/05/29 00:25:08;;;;;;;3.43;2.23;;;14.90;99.90;;;;;;10171656;29;20242;-87
2022/05/29 00:30:13;;;;;;;4.23;2.40;;;16.20;99.90;;;;;;10198992;29;20256;-87
2022/05/29 00:35:15;;;;;;;8.53;2.40;;;15.00;99.90;;;;;;10179771;29;20203;-87
2022/05/29 00:40:29;;;;;;;7.90;2.47;;;15.30;99.90;;;;;;10174559;29;20207;-87
2022/05/29 00:45:46;;;;;;;4.97;2.37;;;15.80;99.90;;;;;;10170282;29;20224;-87
2022/05/29 00:50:51;;;;;;;4.40;2.53;;;15.30;99.90;;;;;;10176314;29;20255;-87
2022/05/29 00:56:07;;;;;;;4.13;2.33;;;15.40;99.90;;;;;;10215687;29;20235;-87
2022/05/29 01:01:11;;;;;;;5.20;2.17;;;16.20;99.90;;;;;;10221507;29;20219;-88
2022/05/29 01:06:14;;;;;;;2.77;2.10;;;15.80;99.90;;;;;;10221886;28;20247;-88
2022/05/29 01:11:44;;;;;;;3.30;1.80;;;16.50;99.90;;;;;;10219976;28;20245;-87
2022/05/29 01:16:59;;;;;;;3.30;1.70;;;16.00;99.70;;;;;;10249060;28;20219;-87
2022/05/29 01:22:10;;;;;;;2.80;2.37;;;15.60;99.90;;;;;;10253151;29;20235;-87
2022/05/29 01:27:26;;;;;;;6.53;2.43;;;14.80;99.90;;;;;;10240203;29;20227;-86
2022/05/29 01:32:42;;;;;;;8.20;1.90;;;15.90;99.90;;;;;;10251737;28;20195;-87
2022/05/29 01:37:50;;;;;;;5.57;1.97;;;14.30;99.90;;;;;;10255511;28;20238;-87
2022/05/29 01:43:19;;;;;;;4.17;2.50;;;13.40;99.90;;;;;;10207894;28;20248;-87
2022/05/29 01:48:33;;;;;;;4.07;1.37;;;14.50;99.90;;;;;;10205837;28;20225;-88
2022/05/29 01:53:41;;;;;;;4.63;1.50;;;15.10;99.90;;;;;;10221460;28;20184;-88
2022/05/29 01:58:51;;;;;;;3.00;2.50;;;15.90;99.90;;;;;;10221674;28;20184;-89
2022/05/29 02:03:57;;;;;;;3.73;1.50;;;15.00;99.90;;;;;;10227481;28;20249;-87
2022/05/29 02:09:07;;;;;;;8.60;2.83;;;15.00;99.90;;;;;;10221214;28;20207;-87
2022/05/29 02:14:17;;;;;;;10.10;4.00;;;14.00;99.90;;;;;;10221466;28;20298;-87
2022/05/29 02:19:33;;;;;;;4.23;2.03;;;12.30;99.90;;;;;;10254311;28;20266;-87
2022/05/29 02:24:44;;;;;;;2.40;2.13;;;12.10;99.90;;;;;;10189337;29;20235;-87
2022/05/29 02:29:47;;;;;;;4.30;1.80;;;14.60;99.90;;;;;;10178798;29;20263;-87
2022/05/29 02:35:09;;;;;;;3.73;2.73;;;14.10;99.90;;;;;;10189038;29;20622;-87
2022/05/29 02:40:42;;;;;;;5.63;2.10;;;14.90;99.90;;;;;;10205819;29;20216;-87
2022/05/29 02:46:07;;;;;;;6.30;2.03;;;14.00;99.90;;;;;;10190296;29;20199;-87
2022/05/29 02:51:23;;;;;;;8.77;2.50;;;13.50;99.90;;;;;;10207410;29;20354;-88
2022/05/29 02:56:25;;;;;;;2.40;2.20;;;14.20;99.90;;;;;;10180007;29;20199;-87
2022/05/29 03:01:35;;;;;;;6.57;1.87;;;14.70;99.90;;;;;;10188411;29;20211;-87
2022/05/29 03:07:02;;;;;;;6.63;2.17;;;14.00;99.90;;;;;;10164381;29;20233;-87
2022/05/29 03:12:19;;;;;;;4.97;2.33;;;14.00;99.90;;;;;;10178936;29;20241;-87
2022/05/29 03:17:45;;;;;;;3.57;1.90;;;14.10;99.90;;;;;;10194021;29;20199;-87
2022/05/29 03:22:59;;;;;;;6.83;2.03;;;13.80;99.90;;;;;;10177666;29;20582;-87
2022/05/29 03:28:04;;;;;;;3.03;2.70;;;13.80;99.90;;;;;;10178672;29;20255;-87
2022/05/29 03:33:09;;;;;;;6.50;2.10;;;14.90;99.90;;;;;;10176672;29;20223;-87
2022/05/29 03:38:12;;;;;;;3.97;2.67;;;13.10;99.90;;;;;;10202131;29;20633;-87
2022/05/29 03:43:22;;;;;;;5.20;2.57;;;13.80;99.90;;;;;;10187961;29;20231;-87
2022/05/29 03:48:25;;;;;;;8.47;2.97;;;13.90;99.90;;;;;;10176004;29;20278;-87
2022/05/29 03:53:27;;;;;;;10.70;3.43;;;13.10;99.90;;;;;;10179151;29;20232;-87
2022/05/29 03:58:31;;;;;;;4.43;3.00;;;12.60;99.90;;;;;;10175861;29;20345;-87
2022/05/29 04:03:35;;;;;;;6.03;2.23;;;12.40;99.90;;;;;;10176878;29;20243;-87
2022/05/29 04:13:59;;;;;;;5.90;2.60;;;13.40;99.90;;;;;;10175623;29;20236;-87
2022/05/29 04:19:01;;;;;;;6.20;2.33;;;12.60;99.90;;;;;;10163092;29;20243;-86
2022/05/29 04:24:04;;;;;;;4.13;2.53;;;12.80;99.90;;;;;;10169392;29;20251;-87
2022/05/29 04:29:06;;;;;;;5.60;2.83;;;13.60;99.90;;;;;;10170751;29;20252;-87
2022/05/29 04:34:09;;;;;;;3.33;3.03;;;12.20;99.90;;;;;;10171747;29;20688;-86
2022/05/29 04:39:11;;;;;;;6.83;3.00;;;14.00;99.90;;;;;;10168867;29;20583;-86
2022/05/29 04:44:14;;;;;;;3.13;2.40;;;13.00;99.90;;;;;;10168179;29;20851;-85
2022/05/29 04:49:16;;;;;;;3.23;2.93;;;12.40;99.90;;;;;;10161237;29;20254;-86
2022/05/29 04:54:19;;;;;;;4.47;3.03;;;12.40;99.90;;;;;;10169262;29;20235;-85
2022/05/29 04:59:21;;;;;;;4.63;2.37;;;13.50;99.90;;;;;;10167634;29;20205;-85
2022/05/29 05:04:24;;;;;;;2.03;1.80;;;14.80;99.90;;;;;;10172213;29;20262;-85
2022/05/29 05:09:28;;;;;;;6.67;2.53;;;14.10;99.90;;;;;;10185315;29;20318;-85
2022/05/29 05:14:33;;;;;;;2.80;2.50;;;11.20;99.90;;;;;;10175129;29;20282;-85
2022/05/29 05:19:37;;;;;;;6.50;2.50;;;11.40;99.90;;;;;;10168803;29;20235;-93
2022/05/29 05:24:39;;;;;;;4.47;2.70;;;13.80;99.90;;;;;;10169378;29;20211;-91
2022/05/29 05:29:43;;;;;;;5.37;2.27;;;13.60;99.90;;;;;;10175386;29;20345;-91
2022/05/29 05:34:46;;;;;;;5.97;2.57;;;12.20;99.90;;;;;;10174307;29;20255;-92
2022/05/29 05:39:51;;;;;;;4.40;2.10;;;13.80;99.90;;;;;;10174354;29;20208;-92
2022/05/29 05:44:54;;;;;;;4.77;2.13;;;14.00;99.90;;;;;;10179234;29;20223;-91
2022/05/29 05:49:56;;;;;;;6.13;2.30;;;14.80;99.90;;;;;;10174830;29;20231;-92
2022/05/29 05:54:59;;;;;;;2.43;1.67;;;13.20;99.90;;;;;;10175697;29;20196;-92
2022/05/29 06:00:14;;;;;;;4.57;1.73;;;14.10;99.90;;;;;;10174640;29;20209;-92
2022/05/29 06:05:17;;;;;;;3.07;1.60;;;16.00;99.90;;;;;;10178816;29;20285;-92
2022/05/29 06:10:20;;;;;;;3.57;1.47;;;14.90;99.90;;;;;;10166288;29;20246;-91
2022/05/29 06:15:22;;;;;;;4.20;1.47;;;15.50;99.90;;;;;;10168443;29;20288;-90
2022/05/29 06:20:26;;;;;;;5.37;1.60;;;16.10;99.90;;;;;;10167195;29;20265;-91
2022/05/29 06:25:29;;;;;;;5.33;2.53;;;15.70;99.90;;;;;;10180898;29;20208;-91
2022/05/29 06:30:32;;;;;;;3.47;2.27;;;14.20;99.90;;;;;;10172788;29;20602;-89
2022/05/29 06:35:35;;;;;;;5.80;2.90;;;16.60;99.90;;;;;;10214104;29;20203;-93
2022/05/29 06:40:42;;;;;;;11.13;3.07;;;15.50;99.90;;;;;;10215837;29;20203;-90
2022/05/29 06:45:45;;;;;;;3.60;2.70;;;13.30;99.90;;;;;;10175485;29;20231;-89
2022/05/29 06:50:47;;;;;;;6.07;2.50;;;12.50;99.90;;;;;;10174262;29;20251;-91
2022/05/29 06:55:52;;;;;;;4.73;2.23;;;12.50;99.90;;;;;;10174689;29;20231;-89
2022/05/29 07:11:42;;;;;;;5.13;2.40;;;16.10;99.90;;;;;;10173878;29;20255;-89
2022/05/29 07:16:44;;;;;;;3.43;1.90;;;16.30;99.90;;;;;;10173830;29;20306;-91
2022/05/29 07:21:47;;;;;;;3.97;2.20;;;17.90;99.60;;;;;;10186531;29;20251;-91
2022/05/29 07:26:50;;;;;;;8.97;1.93;;;;;;;;;;10171152;29;20231;-91
2022/05/29 07:31:53;;;;;;;6.13;1.70;;;19.20;96.90;;;;;;10170492;29;20330;-90
2022/05/29 07:37:08;;;;;;;4.03;2.97;;;18.70;93.50;;;;;;10163365;29;20236;-91
2022/05/29 07:47:42;;;;;;;2.63;2.43;;;20.10;94.10;;;;;;10211928;29;20269;-90
2022/05/29 07:52:45;;;;;;;8.47;1.83;;;19.90;92.50;;;;;;10182584;29;20255;-90
2022/05/29 07:57:48;;;;;;;3.07;1.70;;;19.60;86.80;;;;;;10192271;29;20317;-91
2022/05/29 08:02:50;;;;;;;3.53;2.83;;;18.40;93.50;;;;;;10208672;29;20238;-90
2022/05/29 08:07:53;;;;;;;1.97;1.57;;;19.10;94.00;;;;;;10176769;29;20243;-91
2022/05/29 08:12:55;;;;;;;3.10;1.58;;;19.80;85.60;;;;;;10153861;29;20311;-90
2022/05/29 08:17:58;;;;;;;4.90;2.70;;;20.10;89.40;;;;;;10169140;29;20735;-91
2022/05/29 08:23:00;;;;;;;5.03;3.53;;;20.30;89.80;;;;;;10174304;29;20813;-90
2022/05/29 08:33:28;;;;;;;5.57;3.60;;;18.20;88.90;;;;;;10169458;29;20238;-90
2022/05/29 08:38:32;;;;;;;3.50;2.57;;;17.10;92.60;;;;;;10169170;29;20247;-90
2022/05/29 08:43:42;;;;;;;2.10;1.90;;;17.10;93.40;;;;;;10202885;29;20242;-90
2022/05/29 08:48:46;;;;;;;3.30;2.30;;;18.40;91.00;;;;;;10172748;29;20255;-89
2022/05/29 08:53:53;;;;;;;3.07;2.10;;;17.70;92.30;;;;;;10170391;29;20740;-90
2022/05/29 08:59:10;;;;;;;3.30;2.00;;;17.70;93.20;;;;;;10167959;29;20908;-89
2022/05/29 09:04:25;;;;;;;3.33;3.10;;;18.00;91.30;;;;;;10167062;29;20271;-90
2022/05/29 09:09:50;;;;;;;2.77;2.27;;;19.60;88.40;;;;;;10195524;29;20254;-90
2022/05/29 09:14:59;;;;;;;3.37;3.07;;;17.70;90.30;;;;;;10202885;29;20640;-91
2022/05/29 09:20:41;;;;;;;5.73;3.10;;;18.40;90.90;;;;;;10168240;29;20299;-90
2022/05/29 09:25:44;;;;;;;3.93;3.50;;;18.80;92.40;;;;;;10114245;29;20675;-90
2022/05/29 09:30:46;;;;;;;5.90;2.57;;;19.50;90.60;;;;;;10085979;29;20280;-90
2022/05/29 09:36:02;;;;;;;3.20;2.90;;;19.30;87.90;;;;;;10085957;29;20232;-91
2022/05/29 09:41:11;;;;;;;4.40;1.40;;;19.80;82.50;;;;;;10116195;29;20243;-90
2022/05/29 09:46:23;;;;;;;3.70;3.40;;;19.40;84.10;;;;;;10078085;29;20252;-91
2022/05/29 09:51:29;;;;;;;4.50;4.10;;;18.70;90.80;;;;;;10093556;29;20256;-90
2022/05/29 09:56:33;;;;;;;3.60;2.83;;;19.40;90.50;;;;;;10101402;29;20254;-90
2022/05/29 10:01:40;;;;;;;6.60;2.30;;;20.00;86.00;;;;;;10175824;29;20235;-90
2022/05/29 10:06:46;;;;;;;6.23;2.10;;;18.70;90.40;;;;;;10197881;29;20235;-90
2022/05/29 10:11:58;;;;;;;4.20;3.90;;;18.20;90.60;;;;;;10185872;29;20239;-89
2022/05/29 10:17:06;;;;;;;4.93;2.70;;;19.30;90.70;;;;;;10174051;29;20231;-90
2022/05/29 10:22:21;;;;;;;4.40;3.70;;;19.60;87.00;;;;;;10147267;29;20208;-90
2022/05/29 10:27:28;;;;;;;2.93;1.80;;;19.50;88.60;;;;;;10178525;29;20203;-90
2022/05/29 10:32:34;;;;;;;4.03;2.03;;;19.00;86.00;;;;;;10175710;29;20259;-91
2022/05/29 10:37:40;;;;;;;3.33;1.73;;;18.20;87.90;;;;;;10206598;29;20239;-91
2022/05/29 10:42:49;;;;;;;5.57;2.00;;;18.10;89.20;;;;;;10185845;29;20239;-91
2022/05/29 10:48:03;;;;;;;4.80;3.33;;;17.70;91.50;;;;;;10172800;29;20235;-91
2022/05/29 10:53:43;;;;;;;4.47;2.37;;;18.20;91.90;;;;;;10135702;29;20710;-90
2022/05/29 10:59:07;;;;;;;4.83;2.30;;;18.60;89.00;;;;;;10161736;29;20207;-91
2022/05/29 11:04:28;;;;;;;3.97;3.57;;;17.40;89.40;;;;;;10183138;29;20783;-91
2022/05/29 11:09:58;;;;;;;4.87;1.60;;;18.20;91.20;;;;;;10203444;29;20713;-90
2022/05/29 11:15:29;;;;;;;7.30;2.50;;;17.40;91.10;;;;;;10173813;29;20695;-90
2022/05/29 11:21:01;;;;;;;5.47;1.97;;;17.10;91.20;;;;;;10140834;29;20289;-91
2022/05/29 11:26:21;;;;;;;5.60;4.20;;;17.50;91.90;;;;;;10171049;29;20691;-91
2022/05/29 11:31:45;;;;;;;3.30;2.70;;;18.30;92.40;;;;;;10172794;29;20254;-91
2022/05/29 11:37:12;;;;;;;3.77;2.33;;;19.00;88.30;;;;;;10186082;29;20988;-94
2022/05/29 11:42:34;;;;;;;4.20;1.60;;;18.40;86.50;;;;;;10213356;29;20236;-90
2022/05/29 11:53:47;;;;;;;4.37;3.97;;;18.30;87.10;;;;;;10191963;29;20309;-91
2022/05/29 11:59:16;;;;;;;4.60;1.93;;;18.80;86.50;;;;;;10181702;29;20250;-90
2022/05/29 12:04:59;;;;;;;4.57;1.53;;;18.80;84.60;;;;;;10170605;29;20267;-91
2022/05/29 12:10:11;;;;;;;2.57;1.40;;;18.10;80.80;;;;;;10071863;29;20837;-91
2022/05/29 12:15:20;;;;;;;2.87;2.63;;;17.50;85.40;;;;;;10054945;29;20240;-89
2022/05/29 12:20:35;;;;;;;4.83;3.37;;;17.70;88.50;;;;;;10114002;29;20325;-89
2022/05/29 12:26:07;;;;;;;6.63;4.47;;;17.50;90.40;;;;;;10071766;29;20255;-89
2022/05/29 12:31:41;;;;;;;4.00;3.17;;;17.80;88.50;;;;;;10086036;29;20360;-89
2022/05/29 12:37:04;;;;;;;4.80;4.40;;;18.50;84.20;;;;;;10014611;29;20233;-89
2022/05/29 12:42:18;;;;;;;5.17;3.20;;;18.80;90.80;;;;;;10011215;29;20254;-89
2022/05/29 12:47:42;;;;;;;4.23;1.50;;;18.10;90.80;;;;;;10103733;29;20244;-88
2022/05/29 12:53:19;;;;;;;4.73;2.63;;;16.80;86.40;;;;;;10128566;29;20267;-89
2022/05/29 12:58:38;;;;;;;2.30;1.40;;;17.90;91.80;;;;;;10130017;29;20204;-90
2022/05/29 13:04:18;;;;;;;4.33;3.93;;;18.00;82.80;;;;;;10125335;29;20310;-89
2022/05/29 13:09:54;;;;;;;3.63;3.03;;;18.00;89.70;;;;;;10125980;29;20261;-89
2022/05/29 13:15:02;;;;;;;5.93;3.90;;;17.50;84.70;;;;;;10167860;29;20231;-89
2022/05/29 13:20:12;;;;;;;4.53;2.50;;;18.30;87.60;;;;;;10204089;29;20275;-89
2022/05/29 13:25:17;;;;;;;6.07;4.63;;;17.00;90.30;;;;;;10201437;29;20231;-89
2022/05/29 13:31:06;;;;;;;3.37;2.97;;;18.50;90.60;;;;;;10167190;29;20258;-89
2022/05/29 13:47:40;;;;;;;2.77;1.40;;;16.90;85.10;;;;;;9785143;29;9999859;-89
2022/05/29 13:53:18;;;;;;;5.33;1.50;;;16.30;82.40;;;;;;10200163;23;20749;-82
2022/05/29 14:03:59;;;;;;;3.03;1.90;;;16.60;86.00;;;;;;10141784;29;20242;-80
2022/05/29 14:09:24;;;;;;;3.63;2.83;;;16.20;83.80;;;;;;10183911;29;20301;-81
2022/05/29 14:14:35;;;;;;;2.77;1.53;;;16.10;86.30;;;;;;10159487;29;20289;-80
2022/05/29 14:19:49;;;;;;;3.37;1.50;;;15.90;83.90;;;;;;10160763;29;20250;-80
2022/05/29 14:25:02;;;;;;;5.20;2.13;;;15.80;83.50;;;;;;10163396;29;20307;-80
2022/05/29 14:30:22;;;;;;;4.53;3.30;;;16.00;84.80;;;;;;10170105;29;20333;-81
2022/05/29 14:35:49;;;;;;;4.87;4.37;;;16.50;83.40;;;;;;10210552;28;20244;-81
2022/05/29 14:40:59;;;;;;;5.57;4.53;;;17.50;91.40;;;;;;10251002;29;20769;-81
2022/05/29 14:51:57;;;;;;;4.93;4.00;;;18.30;88.20;;;;;;10290023;28;20327;-78
2022/05/29 14:57:03;;;;;;;4.27;3.87;;;18.60;84.30;;;;;;10274833;28;20297;-79
2022/05/29 15:02:19;;;;;;;2.00;1.73;;;18.10;87.40;;;;;;10239811;28;20266;-78
2022/05/29 15:12:45;;;;;;;1.50;1.20;;;17.50;75.90;;;;;;10271181;28;20819;-81
2022/05/29 15:17:49;;;;;;;6.47;1.41;;;16.90;78.00;;;;;;9236211;28;10001023;-79
2022/05/29 15:28:16;;;;;;;3.43;1.40;;;16.90;87.80;;;;;;10249246;28;20237;-80
2022/05/29 15:33:24;;;;;;;2.30;1.57;;;16.80;82.30;;;;;;10282256;28;20257;-80
2022/05/29 15:38:46;;;;;;;7.40;1.33;;;17.30;85.40;;;;;;10284348;28;20480;-79
2022/05/29 15:44:01;;;;;;;2.53;1.57;;;17.50;82.70;;;;;;10216042;28;20300;-80
2022/05/29 15:49:42;;;;;;;3.30;1.47;;;17.30;78.00;;;;;;10237392;29;20242;-79
2022/05/29 15:55:22;;;;;;;3.00;1.83;;;16.50;81.40;;;;;;10227346;28;20260;-79
2022/05/29 16:00:26;;;;;;;2.13;1.30;;;16.40;79.90;;;;;;10279915;28;20494;-80
2022/05/29 16:05:37;;;;;;;3.63;3.20;;;17.00;81.50;;;;;;10244910;28;20276;-78
2022/05/29 16:10:40;;;;;;;7.03;1.97;;;17.30;83.90;;;;;;10272576;28;20250;-80
2022/05/29 16:15:52;;;;;;;5.13;1.83;;;17.20;83.90;;;;;;10234352;29;20231;-81
2022/05/29 16:21:17;;;;;;;4.30;1.50;;;16.70;81.70;;;;;;10218870;28;20289;-80
2022/05/29 16:26:35;;;;;;;2.20;1.47;;;16.40;83.50;;;;;;10204049;29;20238;-81
2022/05/29 16:31:52;;;;;;;2.17;1.20;;;15.90;85.30;;;;;;10227930;28;20360;-80
2022/05/29 16:48:46;;;;;;;2.03;1.57;;;15.80;88.40;;;;;;10203061;29;20790;-80
2022/05/29 16:53:55;;;;;;;2.73;1.60;;;15.50;85.40;;;;;;10206901;28;20273;-80
2022/05/29 16:59:04;;;;;;;6.83;2.97;;;15.30;92.40;;;;;;10247318;28;20233;-81
2022/05/29 17:04:19;;;;;;;2.93;2.30;;;15.00;90.50;;;;;;10242952;28;20294;-80
2022/05/29 17:09:52;;;;;;;4.17;1.63;;;14.90;92.90;;;;;;10237034;28;20319;-80
2022/05/29 17:14:58;;;;;;;5.73;1.90;;;14.90;94.40;;;;;;10230846;28;20712;-80
2022/05/29 17:20:01;;;;;;;2.53;2.10;;;15.00;95.60;;;;;;10228817;29;20309;-80
2022/05/29 17:25:28;;;;;;;4.53;1.43;;;15.10;92.80;;;;;;10239145;28;20233;-80
2022/05/29 17:30:42;;;;;;;2.63;1.43;;;15.00;92.10;;;;;;10248223;28;20245;-81
2022/05/29 17:35:50;;;;;;;2.83;1.60;;;14.90;94.60;;;;;;10241849;28;20733;-81
2022/05/29 17:40:56;;;;;;;1.90;1.40;;;14.70;92.20;;;;;;10257874;28;20230;-82
2022/05/29 17:46:05;;;;;;;2.93;1.93;;;14.60;94.60;;;;;;10242263;29;20288;-81
2022/05/29 17:51:13;;;;;;;2.70;2.10;;;14.50;96.50;;;;;;10254324;28;20659;-81
2022/05/29 17:56:17;;;;;;;3.43;1.73;;;14.60;94.80;;;;;;10244492;28;20226;-81
2022/05/29 18:01:20;;;;;;;5.37;1.77;;;14.60;97.90;;;;;;10275435;28;20241;-81
2022/05/29 18:06:23;;;;;;;4.93;1.77;;;14.40;95.70;;;;;;10246502;28;20234;-82
2022/05/29 18:11:27;;;;;;;2.00;1.70;;;14.30;96.80;;;;;;10245169;28;20354;-82
2022/05/29 18:16:29;;;;;;;2.97;1.43;;;14.00;99.40;;;;;;10225051;29;20490;-81
2022/05/29 18:21:32;;;;;;;4.23;2.27;;;13.80;99.30;;;;;;10247671;28;20237;-81
2022/05/29 18:26:36;;;;;;;3.17;1.20;;;13.70;98.20;;;;;;10267892;28;20615;-83
2022/05/29 18:31:40;;;;;;;2.37;1.57;;;13.50;99.90;;;;;;10245991;28;20609;-79
2022/05/29 18:36:42;;;;;;;4.63;1.87;;;13.30;99.90;;;;;;10208769;29;20688;-79
2022/05/29 18:41:45;;;;;;;2.40;1.77;;;13.30;99.90;;;;;;10237480;28;20274;-79
2022/05/29 18:46:48;;;;;;;6.27;1.63;;;13.20;99.90;;;;;;10246761;29;20239;-79
2022/05/29 18:51:51;;;;;;;9.10;1.70;;;13.20;99.90;;;;;;10248369;29;20489;-79
2022/05/29 18:56:54;;;;;;;2.73;1.80;;;13.20;99.90;;;;;;10245249;29;20261;-80
2022/05/29 19:01:56;;;;;;;3.93;2.70;;;13.10;99.90;;;;;;10268106;28;20620;-81
2022/05/29 19:06:59;;;;;;;4.13;2.37;;;12.90;99.90;;;;;;10251875;28;20257;-81
2022/05/29 19:12:05;;;;;;;6.37;2.97;;;12.80;99.90;;;;;;10252014;28;20240;-81
2022/05/29 19:18:09;;;;;;;7.70;4.47;;;12.70;99.90;;;;;;10235132;29;20227;-81
2022/05/29 19:22:30;;;;;;;11.23;6.00;;;12.60;99.90;;;;;;10211780;29;20294;-82
2022/05/29 19:27:34;;;;;;;9.20;4.90;;;12.40;99.90;;;;;;10233898;28;20312;-81
2022/05/29 19:32:41;;;;;;;7.37;4.60;;;12.30;99.90;;;;;;10245726;28;20246;-81
2022/05/29 19:37:44;;;;;;;7.00;4.47;;;12.40;99.90;;;;;;10238755;29;20306;-81
2022/05/29 19:42:46;;;;;;;9.57;5.10;;;12.20;99.90;;;;;;10248408;28;20238;-81
2022/05/29 19:47:53;;;;;;;11.33;5.03;;;12.10;99.90;;;;;;10249231;29;20305;-81
2022/05/29 19:52:58;;;;;;;9.13;4.83;;;11.90;99.90;;;;;;10247547;28;20254;-82
2022/05/29 19:58:01;;;;;;;11.13;4.33;;;13.60;99.90;;;;;;10243361;28;20293;-81
2022/05/29 20:03:03;;;;;;;7.60;4.47;;;13.90;99.90;;;;;;10263952;28;20257;-81
2022/05/29 20:08:06;;;;;;;6.53;4.37;;;12.30;99.90;;;;;;10287840;28;20237;-81
2022/05/29 20:13:09;;;;;;;9.77;5.63;;;11.70;99.90;;;;;;10238511;28;20304;-81
2022/05/29 20:18:11;;;;;;;12.27;5.53;;;11.40;99.90;;;;;;10238359;28;20666;-81
2022/05/29 20:23:13;;;;;;;15.47;7.10;;;11.10;99.90;;;;;;10229730;28;20665;-81
2022/05/29 20:28:16;;;;;;;9.33;5.60;;;10.90;99.90;;;;;;10238541;29;20285;-81
2022/05/29 20:33:18;;;;;;;10.57;6.00;;;10.70;99.90;;;;;;10218512;28;20613;-81
2022/05/29 20:38:21;;;;;;;9.50;5.73;;;10.50;99.90;;;;;;10236140;28;20247;-81
2022/05/29 20:43:24;;;;;;;8.83;6.27;;;10.30;99.90;;;;;;10235024;28;20784;-82
2022/05/29 20:48:26;;;;;;;22.30;8.10;;;10.20;99.90;;;;;;10218964;29;20584;-81
2022/05/29 20:53:29;;;;;;;28.77;9.87;;;10.00;99.90;;;;;;10220339;28;20298;-85
2022/05/29 20:58:33;;;;;;;17.27;8.50;;;9.90;99.90;;;;;;10209203;29;20681;-82
2022/05/29 21:03:36;;;;;;;16.83;11.57;;;9.70;99.90;;;;;;10220332;29;20242;-81
2022/05/29 21:08:38;;;;;;;22.60;11.90;;;9.50;99.90;;;;;;10247949;29;20234;-82
2022/05/29 21:13:41;;;;;;;22.43;13.00;;;9.50;99.90;;;;;;10245671;29;20287;-87
2022/05/29 21:18:47;;;;;;;14.93;9.80;;;9.40;99.90;;;;;;10244630;28;20261;-86
2022/05/29 21:23:57;;;;;;;8.53;6.90;;;9.40;99.90;;;;;;10221806;29;20319;-82
2022/05/29 21:29:03;;;;;;;10.80;7.03;;;9.40;99.90;;;;;;10221664;29;20233;-82
2022/05/29 21:34:07;;;;;;;14.43;7.33;;;9.30;99.90;;;;;;10246672;29;20683;-82
2022/05/29 21:39:13;;;;;;;10.40;7.07;;;9.20;99.90;;;;;;10245356;29;20228;-82
2022/05/29 21:44:17;;;;;;;13.90;6.83;;;9.10;99.90;;;;;;10241651;28;20804;-83
2022/05/29 21:49:19;;;;;;;12.97;9.00;;;9.00;99.90;;;;;;10247364;28;20241;-82
2022/05/29 21:54:22;;;;;;;9.13;7.33;;;9.00;99.90;;;;;;10228399;29;20273;-82
2022/05/29 21:59:24;;;;;;;12.97;6.37;;;8.90;99.90;;;;;;10221818;29;20565;-81
2022/05/29 22:04:27;;;;;;;7.13;6.43;;;8.80;99.90;;;;;;10235781;29;20276;-81
2022/05/29 22:09:29;;;;;;;8.30;5.20;;;8.90;99.90;;;;;;10242344;28;20238;-81
2022/05/29 22:14:32;;;;;;;6.33;5.57;;;8.90;99.90;;;;;;10233639;28;20270;-82
2022/05/29 22:19:34;;;;;;;7.53;5.90;;;8.80;99.90;;;;;;10229612;28;20295;-81
2022/05/29 22:24:37;;;;;;;10.80;7.30;;;8.80;99.90;;;;;;10221087;28;20668;-88
2022/05/29 22:29:45;;;;;;;10.20;6.20;;;8.80;99.90;;;;;;10244497;29;20245;-85
2022/05/29 22:35:12;;;;;;;6.90;6.17;;;8.80;99.90;;;;;;10246353;28;20696;-85
2022/05/29 22:40:18;;;;;;;9.87;6.13;;;8.70;99.90;;;;;;10238670;28;20259;-85
2022/05/29 22:45:21;;;;;;;7.37;6.20;;;8.70;99.90;;;;;;10247594;28;20307;-84
2022/05/29 22:50:36;;;;;;;13.17;6.57;;;8.60;99.90;;;;;;10251171;28;20268;-86
2022/05/29 22:55:39;;;;;;;11.10;6.73;;;8.50;99.90;;;;;;10252867;28;20261;-86
2022/05/29 23:00:41;;;;;;;8.77;6.17;;;8.50;99.90;;;;;;10271477;28;20233;-86
2022/05/29 23:05:44;;;;;;;9.83;7.23;;;8.50;99.90;;;;;;10250574;29;20653;-85
2022/05/29 23:10:47;;;;;;;9.30;6.50;;;8.50;99.90;;;;;;10255404;28;20200;-86
2022/05/29 23:15:50;;;;;;;10.73;7.30;;;8.50;99.90;;;;;;10253108;28;20260;-86
2022/05/29 23:20:52;;;;;;;11.17;7.37;;;8.40;99.90;;;;;;10253852;28;20252;-86
2022/05/29 23:25:55;;;;;;;9.60;7.57;;;8.40;99.90;;;;;;10249591;28;20204;-86
2022/05/29 23:31:00;;;;;;;11.73;7.30;;;8.40;99.90;;;;;;10252789;28;20671;-86
2022/05/29 23:36:03;;;;;;;11.83;7.73;;;8.20;99.90;;;;;;10254395;28;20251;-86
2022/05/29 23:46:54;;;;;;;10.67;7.87;;;8.10;99.90;;;;;;10245102;28;20241;-80
2022/05/29 23:51:57;;;;;;;11.60;8.10;;;8.00;99.90;;;;;;10267976;28;20759;-80
2022/05/29 23:56:59;;;;;;;10.07;7.63;;;7.90;99.90;;;;;;10285976;28;20678;-80
